createdAt,value
2022-10-05T00:02:38.102Z,35.20
2022-10-05T00:05:32.339Z,38.88
2022-10-05T00:08:21.902Z,41.22
2022-10-05T00:11:12.607Z,44.78
2022-10-05T00:14:01.934Z,41.08
2022-10-05T00:16:50.165Z,38.78
2022-10-05T00:19:39.311Z,36.55
2022-10-05T00:22:31.658Z,38.33
2022-10-05T00:25:21.228Z,41.08
2022-10-05T00:28:30.154Z,38.88
2022-10-05T00:31:29.982Z,40.85
2022-10-05T00:34:18.367Z,39.83
2022-10-05T00:37:06.333Z,38.63
2022-10-05T00:39:53.419Z,36.25
2022-10-05T00:43:06.312Z,41.40
2022-10-05T00:46:10.426Z,37.33
2022-10-05T00:49:19.395Z,37.72
2022-10-05T00:52:22.873Z,39.42
2022-10-05T00:55:24.614Z,38.92
2022-10-05T00:58:30.602Z,36.58
2022-10-05T01:01:31.642Z,41.88
2022-10-05T01:04:39.705Z,45.03
2022-10-05T01:07:38.254Z,43.75
2022-10-05T01:10:28.047Z,43.30
2022-10-05T01:13:24.063Z,42.60
2022-10-05T01:16:36.031Z,40.38
2022-10-05T01:19:29.131Z,43.67
2022-10-05T01:22:41.464Z,44.20
2022-10-05T01:26:06.100Z,39.95
2022-10-05T01:29:17.064Z,43.95
2022-10-05T01:32:31.874Z,41.42
2022-10-05T01:35:44.412Z,46.85
2022-10-05T01:38:48.008Z,43.20
2022-10-05T01:41:46.746Z,42.60
2022-10-05T01:44:48.650Z,52.22
2022-10-05T01:47:48.905Z,43.45
2022-10-05T01:50:47.455Z,43.70
2022-10-05T01:53:46.469Z,41.08
2022-10-05T01:56:49.703Z,40.75
2022-10-05T02:00:03.263Z,37.88
2022-10-05T02:03:08.437Z,38.25
2022-10-05T02:06:11.086Z,37.15
2022-10-05T02:09:17.105Z,39.25
2022-10-05T02:12:14.254Z,34.72
2022-10-05T02:15:13.758Z,37.58
2022-10-05T02:18:09.502Z,34.05
2022-10-05T02:20:58.386Z,35.83
2022-10-05T02:23:47.780Z,31.80
2022-10-05T02:26:37.496Z,29.02
2022-10-05T02:29:30.260Z,32.10
2022-10-05T02:35:16.103Z,31.45
2022-10-05T02:38:19.435Z,34.25
2022-10-05T02:41:06.457Z,31.65
2022-10-05T02:44:08.374Z,35.80
2022-10-05T02:47:29.863Z,39.35
2022-10-05T02:50:28.810Z,37.85
2022-10-05T02:53:25.548Z,36.88
2022-10-05T02:56:15.667Z,35.15
2022-10-05T02:59:29.772Z,44.00
2022-10-05T03:02:19.867Z,40.70
2022-10-05T03:05:20.117Z,37.60
2022-10-05T03:08:16.474Z,38.33
2022-10-05T03:11:18.176Z,36.35
2022-10-05T03:14:23.113Z,34.80
2022-10-05T03:17:23.908Z,36.88
2022-10-05T03:20:52.508Z,38.60
2022-10-05T03:24:00.357Z,36.08
2022-10-05T03:26:58.250Z,39.55
2022-10-05T03:30:12.198Z,35.95
2022-10-05T03:33:40.833Z,34.70
2022-10-05T03:36:38.384Z,35.70
2022-10-05T03:39:39.102Z,36.78
2022-10-05T03:43:00.930Z,36.90
2022-10-05T03:46:02.913Z,35.50
2022-10-05T03:49:08.155Z,27.60
2022-10-05T03:52:26.258Z,37.75
2022-10-05T03:55:19.910Z,32.47
2022-10-05T03:58:30.802Z,34.42
2022-10-05T04:01:25.988Z,37.30
2022-10-05T04:04:22.929Z,37.00
2022-10-05T04:07:25.921Z,37.92
2022-10-05T04:13:18.140Z,35.03
2022-10-05T04:16:29.525Z,39.90
2022-10-05T04:19:30.999Z,37.35
2022-10-05T04:22:37.034Z,34.13
2022-10-05T04:25:39.957Z,36.58
2022-10-05T04:28:53.626Z,34.83
2022-10-05T04:31:50.220Z,37.60
2022-10-05T04:35:02.120Z,40.33
2022-10-05T04:38:26.495Z,42.17
2022-10-05T04:41:50.755Z,46.15
2022-10-05T04:45:04.650Z,45.17
2022-10-05T04:48:03.887Z,43.53
2022-10-05T04:51:06.000Z,48.05
2022-10-05T04:54:24.982Z,46.87
2022-10-05T04:57:23.795Z,45.22
2022-10-05T05:00:23.229Z,45.15
2022-10-05T05:03:16.211Z,45.53
2022-10-05T05:06:18.514Z,47.42
2022-10-05T05:09:38.840Z,52.53
2022-10-05T05:12:28.865Z,44.65
2022-10-05T05:15:30.209Z,44.80
2022-10-05T05:18:36.089Z,46.15
2022-10-05T05:21:35.722Z,45.05
2022-10-05T05:24:29.370Z,42.75
2022-10-05T05:27:28.908Z,43.95
2022-10-05T05:30:28.711Z,44.80
2022-10-05T05:33:41.930Z,38.40
2022-10-05T05:39:26.255Z,44.85
2022-10-05T05:42:22.490Z,47.08
2022-10-05T05:45:34.692Z,47.05
2022-10-05T05:48:43.330Z,38.03
2022-10-05T05:51:35.405Z,52.90
2022-10-05T05:54:32.718Z,50.85
2022-10-05T05:57:28.274Z,49.08
2022-10-05T06:00:17.604Z,50.38
2022-10-05T06:03:41.712Z,54.20
2022-10-05T06:06:35.915Z,50.17
2022-10-05T06:09:32.348Z,53.85
2022-10-05T06:12:24.449Z,56.70
2022-10-05T06:15:25.496Z,53.72
2022-10-05T06:18:16.581Z,63.80
2022-10-05T06:21:30.273Z,59.28
2022-10-05T06:24:59.293Z,61.28
2022-10-05T06:28:00.564Z,67.88
2022-10-05T06:31:09.562Z,56.15
2022-10-05T06:34:18.416Z,51.28
2022-10-05T06:37:23.251Z,59.28
2022-10-05T06:40:23.517Z,43.15
2022-10-05T06:43:41.137Z,43.08
2022-10-05T06:46:39.358Z,42.60
2022-10-05T06:49:41.295Z,33.15
2022-10-05T06:52:56.300Z,33.08
2022-10-05T06:56:01.885Z,26.90
2022-10-05T06:59:00.023Z,22.90
2022-10-05T07:01:58.541Z,20.83
2022-10-05T07:05:05.271Z,21.90
2022-10-05T07:08:28.005Z,19.02
2022-10-05T07:11:15.364Z,16.50
2022-10-05T07:14:15.209Z,16.02
2022-10-05T07:17:09.012Z,14.70
2022-10-05T07:20:14.544Z,16.75
2022-10-05T07:23:29.537Z,15.77
2022-10-05T07:26:19.624Z,11.95
2022-10-05T07:29:17.016Z,9.27
2022-10-05T07:32:34.373Z,11.90
2022-10-05T07:35:55.063Z,10.70
2022-10-05T07:38:52.883Z,12.82
2022-10-05T07:41:47.869Z,7.07
2022-10-05T07:44:45.127Z,12.75
2022-10-05T07:47:39.206Z,6.32
2022-10-05T07:50:40.645Z,5.72
2022-10-05T07:53:37.744Z,11.00
2022-10-05T07:56:40.569Z,5.60
2022-10-05T07:59:43.938Z,7.15
2022-10-05T08:02:44.645Z,7.20
2022-10-05T08:05:44.673Z,4.05
2022-10-05T08:08:45.141Z,6.57
2022-10-05T08:11:48.577Z,6.80
2022-10-05T08:15:00.180Z,3.45
2022-10-05T08:18:00.492Z,4.93
2022-10-05T08:20:57.671Z,5.10
2022-10-05T08:23:57.130Z,3.70
2022-10-05T08:27:08.075Z,6.32
2022-10-05T08:30:10.390Z,3.58
2022-10-05T08:33:18.187Z,6.95
2022-10-05T08:36:10.778Z,9.68
2022-10-05T08:39:04.388Z,3.13
2022-10-05T08:42:24.607Z,2.40
2022-10-05T08:45:44.489Z,3.38
2022-10-05T08:48:56.564Z,3.08
2022-10-05T08:51:50.240Z,2.42
2022-10-05T08:54:55.791Z,4.18
2022-10-05T08:57:46.633Z,7.28
2022-10-05T09:00:51.992Z,4.10
2022-10-05T09:04:02.201Z,4.43
2022-10-05T09:07:12.191Z,2.92
2022-10-05T09:10:29.661Z,3.92
2022-10-05T09:13:26.163Z,4.85
2022-10-05T09:16:25.495Z,8.63
2022-10-05T09:19:26.789Z,1.85
2022-10-05T09:22:30.447Z,2.95
2022-10-05T09:25:44.717Z,1.98
2022-10-05T09:28:37.739Z,2.47
2022-10-05T09:31:59.606Z,4.32
2022-10-05T09:35:27.988Z,1.15
2022-10-05T09:38:50.498Z,2.13
2022-10-05T09:41:51.287Z,2.90
2022-10-05T09:45:21.002Z,3.22
2022-10-05T09:48:45.054Z,2.40
2022-10-05T09:51:59.069Z,2.25
2022-10-05T09:55:01.499Z,3.35
2022-10-05T09:58:23.225Z,1.92
2022-10-05T10:01:41.367Z,3.50
2022-10-05T10:05:05.847Z,4.72
2022-10-05T10:08:07.089Z,3.90
2022-10-05T10:11:03.021Z,2.83
2022-10-05T10:14:05.747Z,5.43
2022-10-05T10:17:19.288Z,1.60
2022-10-05T10:20:18.537Z,3.03
2022-10-05T10:24:00.228Z,1.42
2022-10-05T10:27:13.038Z,1.95
2022-10-05T10:30:48.556Z,3.08
2022-10-05T10:33:57.209Z,2.28
2022-10-05T10:36:57.213Z,3.65
2022-10-05T10:40:08.582Z,6.57
2022-10-05T10:43:22.319Z,2.42
2022-10-05T10:46:12.110Z,2.33
2022-10-05T10:49:08.218Z,2.40
2022-10-05T10:52:22.954Z,2.22
2022-10-05T10:55:37.875Z,7.25
2022-10-05T10:58:46.774Z,1.58
2022-10-05T11:02:06.218Z,1.75
2022-10-05T11:05:14.905Z,4.75
2022-10-05T11:08:26.525Z,2.63
2022-10-05T11:11:31.036Z,2.70
2022-10-05T11:14:39.906Z,2.50
2022-10-05T11:18:16.383Z,2.25
2022-10-05T11:21:43.283Z,1.38
2022-10-05T11:24:55.523Z,2.92
2022-10-05T11:27:54.340Z,4.50
2022-10-05T11:30:59.727Z,3.30
2022-10-05T11:34:12.312Z,4.20
2022-10-05T11:37:36.971Z,3.25
2022-10-05T11:40:39.745Z,2.90
2022-10-05T11:43:48.424Z,1.70
2022-10-05T11:46:55.649Z,2.35
2022-10-05T11:50:18.023Z,3.85
2022-10-05T11:53:33.520Z,1.42
2022-10-05T11:57:00.295Z,3.10
2022-10-05T12:00:01.342Z,2.47
2022-10-05T12:03:19.492Z,2.03
2022-10-05T12:06:44.488Z,1.35
2022-10-05T12:09:34.592Z,2.25
2022-10-05T12:12:27.357Z,4.68
2022-10-05T12:15:36.148Z,1.42
2022-10-05T12:18:32.979Z,2.85
2022-10-05T12:21:37.515Z,1.10
2022-10-05T12:24:51.441Z,1.20
2022-10-05T12:27:44.113Z,1.02
2022-10-05T12:31:27.815Z,0.75
2022-10-05T12:34:42.755Z,2.08
2022-10-05T12:37:36.558Z,0.43
2022-10-05T12:40:38.055Z,1.08
2022-10-05T12:43:35.464Z,1.17
2022-10-05T12:46:47.346Z,1.00
2022-10-05T12:49:49.333Z,0.52
2022-10-05T12:52:49.980Z,1.90
2022-10-05T12:55:40.143Z,3.20
2022-10-05T12:58:27.175Z,2.25
2022-10-05T13:01:30.197Z,0.57
2022-10-05T13:04:31.071Z,1.15
2022-10-05T13:11:32.327Z,0.88
2022-10-05T13:15:03.625Z,0.40
2022-10-05T13:18:37.265Z,0.63
2022-10-05T13:21:38.718Z,0.80
2022-10-05T13:24:59.522Z,1.15
2022-10-05T13:28:19.576Z,3.67
2022-10-05T13:31:15.694Z,1.38
2022-10-05T13:34:50.954Z,1.40
2022-10-05T13:37:50.830Z,3.78
2022-10-05T13:40:53.945Z,1.38
2022-10-05T13:47:09.466Z,0.60
2022-10-05T13:50:34.408Z,1.73
2022-10-05T13:53:40.815Z,2.45
2022-10-05T13:56:33.588Z,2.08
2022-10-05T13:59:33.199Z,2.50
2022-10-05T14:02:30.074Z,0.88
2022-10-05T14:05:27.929Z,1.35
2022-10-05T14:08:18.552Z,6.80
2022-10-05T14:11:31.724Z,0.50
2022-10-05T14:14:30.640Z,3.65
2022-10-05T14:17:33.695Z,3.75
2022-10-05T14:20:31.425Z,2.00
2022-10-05T14:23:26.921Z,2.15
2022-10-05T14:26:24.665Z,1.02
2022-10-05T14:29:14.519Z,1.55
2022-10-05T14:32:13.780Z,1.10
2022-10-05T14:35:17.538Z,4.35
2022-10-05T14:38:29.798Z,1.83
2022-10-05T14:41:24.889Z,3.13
2022-10-05T14:44:17.299Z,0.75
2022-10-05T14:50:26.396Z,1.67
2022-10-05T14:53:38.209Z,1.40
2022-10-05T14:57:31.410Z,1.57
2022-10-05T15:01:00.591Z,2.13
2022-10-05T15:04:25.811Z,2.88
2022-10-05T15:07:28.362Z,1.77
2022-10-05T15:13:42.963Z,2.20
2022-10-05T15:16:33.233Z,0.60
2022-10-05T15:27:14.073Z,2.28
2022-10-05T15:34:18.350Z,6.28
2022-10-05T15:37:27.703Z,2.10
2022-10-05T15:40:40.464Z,1.45
2022-10-05T15:43:48.047Z,1.50
2022-10-05T15:46:43.486Z,1.20
2022-10-05T15:49:58.414Z,1.67
2022-10-05T15:53:12.252Z,2.08
2022-10-05T15:56:09.531Z,2.88
2022-10-05T15:59:24.671Z,2.78
2022-10-05T16:02:56.984Z,4.13
2022-10-05T16:10:21.843Z,1.25
2022-10-05T16:13:34.185Z,2.30
2022-10-05T16:16:33.136Z,3.15
2022-10-05T16:19:58.207Z,2.60
2022-10-05T16:23:30.969Z,4.03
2022-10-05T16:26:46.301Z,3.47
2022-10-05T16:30:12.819Z,3.03
2022-10-05T16:33:11.175Z,1.15
2022-10-05T16:36:40.341Z,1.17
2022-10-05T16:43:45.450Z,10.50
2022-10-05T16:51:18.232Z,1.63
2022-10-05T16:54:34.063Z,9.57
2022-10-05T16:57:52.768Z,3.47
2022-10-05T17:05:04.583Z,5.50
2022-10-05T17:08:30.515Z,3.47
2022-10-05T17:11:45.740Z,3.60
2022-10-05T17:14:39.686Z,2.33
2022-10-05T17:17:57.757Z,3.20
2022-10-05T17:32:29.679Z,6.78
2022-10-05T17:36:04.830Z,7.78
2022-10-05T17:39:15.729Z,4.70
2022-10-05T17:42:37.844Z,6.30
2022-10-05T17:45:39.079Z,2.33
2022-10-05T17:48:47.721Z,5.10
2022-10-05T17:52:01.429Z,1.95
2022-10-05T17:55:07.560Z,5.10
2022-10-05T17:58:00.093Z,4.15
2022-10-05T18:01:00.819Z,6.75
2022-10-05T18:07:47.500Z,6.07
2022-10-05T18:10:59.594Z,3.13
2022-10-05T18:13:50.569Z,2.30
2022-10-05T18:17:00.001Z,4.35
2022-10-05T18:20:13.419Z,5.35
2022-10-05T18:23:19.802Z,2.63
2022-10-05T18:26:29.165Z,5.10
2022-10-05T18:29:54.793Z,2.38
2022-10-05T18:33:05.714Z,2.17
2022-10-05T18:36:04.129Z,3.78
2022-10-05T18:39:13.313Z,5.22
2022-10-05T18:42:40.791Z,6.30
2022-10-05T18:49:44.427Z,4.15
2022-10-05T18:52:59.120Z,3.17
2022-10-05T18:56:18.362Z,3.20
2022-10-05T18:59:39.621Z,4.68
2022-10-05T19:02:37.310Z,3.40
2022-10-05T19:05:48.331Z,3.50
2022-10-05T19:08:51.352Z,11.07
2022-10-05T19:12:06.993Z,2.65
2022-10-05T19:15:22.349Z,3.65
2022-10-05T19:18:37.826Z,4.15
2022-10-05T19:21:49.397Z,2.38
2022-10-05T19:24:42.695Z,2.72
2022-10-05T19:28:09.039Z,5.75
2022-10-05T19:31:09.414Z,4.55
2022-10-05T19:34:34.326Z,2.97
2022-10-05T19:37:43.639Z,2.22
2022-10-05T19:40:45.883Z,3.13
2022-10-05T19:43:42.532Z,5.43
2022-10-05T19:46:33.517Z,4.65
2022-10-05T19:49:57.164Z,3.70
2022-10-05T19:52:51.575Z,4.60
2022-10-05T19:55:47.234Z,3.80
2022-10-05T19:58:42.185Z,4.75
2022-10-05T20:01:40.738Z,7.85
2022-10-05T20:04:38.510Z,5.43
2022-10-05T20:07:29.512Z,5.15
2022-10-05T20:10:23.250Z,7.53
2022-10-05T20:13:24.867Z,4.50
2022-10-05T20:16:55.672Z,4.30
2022-10-05T20:20:01.755Z,4.45
2022-10-05T20:22:54.641Z,5.90
2022-10-05T20:25:43.400Z,4.65
2022-10-05T20:31:59.453Z,6.22
2022-10-05T20:34:56.025Z,6.18
2022-10-05T20:37:44.316Z,3.90
2022-10-05T20:40:35.185Z,7.20
2022-10-05T20:43:22.429Z,6.78
2022-10-05T20:46:12.273Z,7.35
2022-10-05T20:49:01.715Z,5.47
2022-10-05T20:51:48.890Z,6.60
2022-10-05T20:54:36.964Z,7.13
2022-10-05T20:57:28.867Z,4.57
2022-10-05T21:00:16.397Z,4.83
2022-10-05T21:03:03.924Z,7.93
2022-10-05T21:05:54.864Z,3.95
2022-10-05T21:08:43.715Z,6.75
2022-10-05T21:11:34.000Z,6.50
2022-10-05T21:14:28.175Z,5.45
2022-10-05T21:17:15.448Z,4.32
2022-10-05T21:20:04.712Z,6.03
2022-10-05T21:22:52.060Z,3.55
2022-10-05T21:25:41.228Z,4.65
2022-10-05T21:28:33.912Z,4.30
2022-10-05T21:34:08.836Z,6.05
2022-10-05T21:36:59.235Z,6.95
2022-10-05T21:39:51.639Z,10.02
2022-10-05T21:42:44.343Z,5.25
2022-10-05T21:46:15.617Z,6.10
2022-10-05T21:49:05.301Z,11.50
2022-10-05T21:52:58.936Z,6.40
2022-10-05T21:56:13.705Z,5.72
2022-10-05T21:59:03.382Z,4.25
2022-10-05T22:02:43.316Z,6.32
2022-10-05T22:13:46.655Z,12.18
2022-10-05T22:21:36.105Z,6.78
2022-10-05T22:24:27.628Z,7.47
2022-10-05T22:27:15.087Z,7.47
2022-10-05T22:31:02.412Z,6.72
2022-10-05T22:33:51.093Z,6.20
2022-10-05T22:36:48.868Z,3.83
2022-10-05T22:39:56.603Z,6.07
2022-10-05T22:42:55.232Z,5.35
2022-10-05T22:45:50.651Z,4.40
2022-10-05T22:48:42.313Z,7.50
2022-10-05T22:51:51.090Z,6.35
2022-10-05T22:54:48.209Z,4.30
2022-10-05T22:58:25.449Z,3.70
2022-10-05T23:01:16.176Z,5.63
2022-10-05T23:08:23.817Z,4.97
2022-10-05T23:11:49.210Z,7.72
2022-10-05T23:14:46.998Z,5.50
2022-10-05T23:17:36.801Z,5.93
2022-10-05T23:20:25.021Z,4.72
2022-10-05T23:23:37.813Z,6.65
2022-10-05T23:26:28.050Z,5.82
2022-10-05T23:39:56.501Z,7.63
2022-10-05T23:42:55.109Z,7.03
2022-10-05T23:45:48.737Z,9.75
2022-10-05T23:48:42.540Z,6.82
2022-10-05T23:51:40.637Z,6.72
2022-10-05T23:55:08.785Z,3.97
2022-10-05T23:58:03.072Z,6.32
